sensor_id;sensor_type;location;lat;lon;timestamp;temperature;humidity
23560;DHT22;11958;50.836;4.438;2023-05-29T00:01:23;15.10;71.40
23560;DHT22;11958;50.836;4.438;2023-05-29T00:03:50;15.10;71.80
23560;DHT22;11958;50.836;4.438;2023-05-29T00:06:16;15.20;71.10
23560;DHT22;11958;50.836;4.438;2023-05-29T00:08:42;15.20;71.40
23560;DHT22;11958;50.836;4.438;2023-05-29T00:11:08;15.20;71.20
23560;DHT22;11958;50.836;4.438;2023-05-29T00:13:33;15.10;71.60
23560;DHT22;11958;50.836;4.438;2023-05-29T00:15:59;15.20;71.30
23560;DHT22;11958;50.836;4.438;2023-05-29T00:18:26;15.00;71.70
23560;DHT22;11958;50.836;4.438;2023-05-29T00:20:52;15.00;71.70
23560;DHT22;11958;50.836;4.438;2023-05-29T00:23:19;14.90;71.90
23560;DHT22;11958;50.836;4.438;2023-05-29T00:25:44;15.00;72.10
23560;DHT22;11958;50.836;4.438;2023-05-29T00:28:10;14.70;72.50
23560;DHT22;11958;50.836;4.438;2023-05-29T00:30:38;14.80;72.60
23560;DHT22;11958;50.836;4.438;2023-05-29T00:33:04;14.80;72.90
23560;DHT22;11958;50.836;4.438;2023-05-29T00:35:30;14.70;72.70
23560;DHT22;11958;50.836;4.438;2023-05-29T00:37:56;14.70;73.00
23560;DHT22;11958;50.836;4.438;2023-05-29T00:40:22;14.70;73.40
23560;DHT22;11958;50.836;4.438;2023-05-29T00:42:48;14.60;73.50
23560;DHT22;11958;50.836;4.438;2023-05-29T00:45:14;14.50;74.00
23560;DHT22;11958;50.836;4.438;2023-05-29T00:47:42;14.50;74.30
23560;DHT22;11958;50.836;4.438;2023-05-29T00:50:11;14.40;74.50
23560;DHT22;11958;50.836;4.438;2023-05-29T00:52:41;14.30;75.10
23560;DHT22;11958;50.836;4.438;2023-05-29T00:55:09;14.30;74.90
23560;DHT22;11958;50.836;4.438;2023-05-29T00:57:35;14.30;75.30
23560;DHT22;11958;50.836;4.438;2023-05-29T01:00:04;14.30;75.10
23560;DHT22;11958;50.836;4.438;2023-05-29T01:02:31;14.30;74.90
23560;DHT22;11958;50.836;4.438;2023-05-29T01:04:57;14.10;75.50
23560;DHT22;11958;50.836;4.438;2023-05-29T01:07:23;14.10;75.60
23560;DHT22;11958;50.836;4.438;2023-05-29T01:09:49;14.10;75.60
23560;DHT22;11958;50.836;4.438;2023-05-29T01:20:34;13.90;77.10
23560;DHT22;11958;50.836;4.438;2023-05-29T01:23:19;13.90;77.60
23560;DHT22;11958;50.836;4.438;2023-05-29T01:26:28;13.80;77.80
23560;DHT22;11958;50.836;4.438;2023-05-29T01:28:57;13.70;78.10
23560;DHT22;11958;50.836;4.438;2023-05-29T01:31:26;13.60;78.30
23560;DHT22;11958;50.836;4.438;2023-05-29T01:36:19;13.60;78.50
23560;DHT22;11958;50.836;4.438;2023-05-29T01:38:46;13.50;78.60
23560;DHT22;11958;50.836;4.438;2023-05-29T01:41:12;13.50;79.00
23560;DHT22;11958;50.836;4.438;2023-05-29T01:43:38;13.50;78.80
23560;DHT22;11958;50.836;4.438;2023-05-29T01:46:04;13.50;78.70
23560;DHT22;11958;50.836;4.438;2023-05-29T01:48:30;13.60;78.80
23560;DHT22;11958;50.836;4.438;2023-05-29T01:50:56;13.50;79.00
23560;DHT22;11958;50.836;4.438;2023-05-29T01:53:23;13.50;78.70
23560;DHT22;11958;50.836;4.438;2023-05-29T01:55:50;13.60;78.80
23560;DHT22;11958;50.836;4.438;2023-05-29T01:58:17;13.60;78.70
23560;DHT22;11958;50.836;4.438;2023-05-29T02:00:43;13.50;78.80
23560;DHT22;11958;50.836;4.438;2023-05-29T02:03:08;13.50;78.80
23560;DHT22;11958;50.836;4.438;2023-05-29T02:05:34;13.50;78.70
23560;DHT22;11958;50.836;4.438;2023-05-29T02:08:00;13.40;78.60
23560;DHT22;11958;50.836;4.438;2023-05-29T02:10:25;13.40;78.90
23560;DHT22;11958;50.836;4.438;2023-05-29T02:12:51;13.50;78.60
23560;DHT22;11958;50.836;4.438;2023-05-29T02:15:17;13.40;78.50
23560;DHT22;11958;50.836;4.438;2023-05-29T02:17:46;13.50;78.60
23560;DHT22;11958;50.836;4.438;2023-05-29T02:20:15;13.50;78.80
23560;DHT22;11958;50.836;4.438;2023-05-29T02:22:44;13.50;78.40
23560;DHT22;11958;50.836;4.438;2023-05-29T02:25:20;13.50;77.90
23560;DHT22;11958;50.836;4.438;2023-05-29T02:27:46;13.60;77.80
23560;DHT22;11958;50.836;4.438;2023-05-29T02:30:12;13.50;78.00
23560;DHT22;11958;50.836;4.438;2023-05-29T02:32:37;13.50;77.80
23560;DHT22;11958;50.836;4.438;2023-05-29T02:35:03;13.40;77.70
23560;DHT22;11958;50.836;4.438;2023-05-29T02:37:33;13.40;77.80
23560;DHT22;11958;50.836;4.438;2023-05-29T02:40:07;13.50;77.50
23560;DHT22;11958;50.836;4.438;2023-05-29T02:42:37;13.40;77.80
23560;DHT22;11958;50.836;4.438;2023-05-29T02:45:08;13.40;77.40
23560;DHT22;11958;50.836;4.438;2023-05-29T02:47:35;13.50;76.80
23560;DHT22;11958;50.836;4.438;2023-05-29T02:50:01;13.40;76.90
23560;DHT22;11958;50.836;4.438;2023-05-29T02:52:36;13.40;76.00
23560;DHT22;11958;50.836;4.438;2023-05-29T02:55:05;13.50;76.30
23560;DHT22;11958;50.836;4.438;2023-05-29T02:57:32;13.40;76.50
23560;DHT22;11958;50.836;4.438;2023-05-29T02:59:58;13.50;76.30
23560;DHT22;11958;50.836;4.438;2023-05-29T03:02:40;13.20;76.20
23560;DHT22;11958;50.836;4.438;2023-05-29T03:05:06;13.10;76.00
23560;DHT22;11958;50.836;4.438;2023-05-29T03:07:32;12.90;76.30
23560;DHT22;11958;50.836;4.438;2023-05-29T03:09:57;12.80;75.30
23560;DHT22;11958;50.836;4.438;2023-05-29T03:12:23;12.70;75.90
23560;DHT22;11958;50.836;4.438;2023-05-29T03:14:49;12.60;77.00
23560;DHT22;11958;50.836;4.438;2023-05-29T03:17:15;12.50;77.50
23560;DHT22;11958;50.836;4.438;2023-05-29T03:19:40;12.50;77.60
23560;DHT22;11958;50.836;4.438;2023-05-29T03:22:06;12.60;76.90
23560;DHT22;11958;50.836;4.438;2023-05-29T03:24:32;12.40;77.60
23560;DHT22;11958;50.836;4.438;2023-05-29T03:27:00;12.50;76.60
23560;DHT22;11958;50.836;4.438;2023-05-29T03:29:26;12.40;76.40
23560;DHT22;11958;50.836;4.438;2023-05-29T03:31:52;12.40;76.70
23560;DHT22;11958;50.836;4.438;2023-05-29T03:34:17;12.40;76.40
23560;DHT22;11958;50.836;4.438;2023-05-29T03:36:43;12.40;76.40
23560;DHT22;11958;50.836;4.438;2023-05-29T03:39:11;12.30;76.40
23560;DHT22;11958;50.836;4.438;2023-05-29T03:41:37;12.30;75.60
23560;DHT22;11958;50.836;4.438;2023-05-29T03:44:03;12.30;74.90
23560;DHT22;11958;50.836;4.438;2023-05-29T03:46:29;12.20;74.90
23560;DHT22;11958;50.836;4.438;2023-05-29T03:48:55;12.30;75.20
23560;DHT22;11958;50.836;4.438;2023-05-29T03:51:21;12.30;74.30
23560;DHT22;11958;50.836;4.438;2023-05-29T03:53:46;12.20;74.40
23560;DHT22;11958;50.836;4.438;2023-05-29T03:56:12;12.10;74.30
23560;DHT22;11958;50.836;4.438;2023-05-29T03:58:37;12.10;74.50
23560;DHT22;11958;50.836;4.438;2023-05-29T04:01:04;12.40;73.00
23560;DHT22;11958;50.836;4.438;2023-05-29T04:03:29;12.30;72.70
23560;DHT22;11958;50.836;4.438;2023-05-29T04:05:56;12.50;71.90
23560;DHT22;11958;50.836;4.438;2023-05-29T04:08:22;12.30;72.50
23560;DHT22;11958;50.836;4.438;2023-05-29T04:10:47;12.20;72.40
23560;DHT22;11958;50.836;4.438;2023-05-29T04:13:13;12.20;72.20
23560;DHT22;11958;50.836;4.438;2023-05-29T04:15:38;12.30;71.70
23560;DHT22;11958;50.836;4.438;2023-05-29T04:18:04;12.20;71.90
23560;DHT22;11958;50.836;4.438;2023-05-29T04:20:30;12.30;71.50
23560;DHT22;11958;50.836;4.438;2023-05-29T04:22:56;12.20;71.90
23560;DHT22;11958;50.836;4.438;2023-05-29T04:25:22;12.20;71.40
23560;DHT22;11958;50.836;4.438;2023-05-29T04:27:48;11.90;72.00
23560;DHT22;11958;50.836;4.438;2023-05-29T04:30:16;12.00;72.20
23560;DHT22;11958;50.836;4.438;2023-05-29T04:32:42;11.80;71.60
23560;DHT22;11958;50.836;4.438;2023-05-29T04:35:08;12.00;72.00
23560;DHT22;11958;50.836;4.438;2023-05-29T04:37:36;12.00;70.80
23560;DHT22;11958;50.836;4.438;2023-05-29T04:40:07;12.20;71.10
23560;DHT22;11958;50.836;4.438;2023-05-29T04:42:38;12.30;70.40
23560;DHT22;11958;50.836;4.438;2023-05-29T04:45:05;12.50;69.50
23560;DHT22;11958;50.836;4.438;2023-05-29T04:47:31;12.40;69.30
23560;DHT22;11958;50.836;4.438;2023-05-29T04:50:01;12.30;69.80
23560;DHT22;11958;50.836;4.438;2023-05-29T04:52:27;12.20;70.00
23560;DHT22;11958;50.836;4.438;2023-05-29T04:54:56;12.10;70.30
23560;DHT22;11958;50.836;4.438;2023-05-29T04:57:22;12.10;70.90
23560;DHT22;11958;50.836;4.438;2023-05-29T04:59:48;12.40;70.30
23560;DHT22;11958;50.836;4.438;2023-05-29T05:02:14;12.50;68.80
23560;DHT22;11958;50.836;4.438;2023-05-29T05:04:40;12.30;69.70
23560;DHT22;11958;50.836;4.438;2023-05-29T05:07:05;12.70;67.20
23560;DHT22;11958;50.836;4.438;2023-05-29T05:09:31;12.60;68.10
23560;DHT22;11958;50.836;4.438;2023-05-29T05:11:57;12.40;69.20
23560;DHT22;11958;50.836;4.438;2023-05-29T05:14:23;12.20;69.50
23560;DHT22;11958;50.836;4.438;2023-05-29T05:16:49;12.30;68.90
23560;DHT22;11958;50.836;4.438;2023-05-29T05:19:15;12.30;70.00
23560;DHT22;11958;50.836;4.438;2023-05-29T05:21:40;12.30;69.40
23560;DHT22;11958;50.836;4.438;2023-05-29T05:24:06;12.50;67.90
23560;DHT22;11958;50.836;4.438;2023-05-29T05:26:32;12.30;69.40
23560;DHT22;11958;50.836;4.438;2023-05-29T05:28:57;12.20;69.70
23560;DHT22;11958;50.836;4.438;2023-05-29T05:31:24;12.50;69.30
23560;DHT22;11958;50.836;4.438;2023-05-29T05:33:51;12.40;69.00
23560;DHT22;11958;50.836;4.438;2023-05-29T05:36:16;12.60;67.70
23560;DHT22;11958;50.836;4.438;2023-05-29T05:38:42;12.60;67.90
23560;DHT22;11958;50.836;4.438;2023-05-29T05:41:08;12.60;67.50
23560;DHT22;11958;50.836;4.438;2023-05-29T05:43:34;12.60;68.00
23560;DHT22;11958;50.836;4.438;2023-05-29T05:45:59;12.80;66.20
23560;DHT22;11958;50.836;4.438;2023-05-29T05:48:25;12.80;65.20
23560;DHT22;11958;50.836;4.438;2023-05-29T05:50:51;12.70;67.70
23560;DHT22;11958;50.836;4.438;2023-05-29T05:53:16;12.60;68.00
23560;DHT22;11958;50.836;4.438;2023-05-29T05:55:43;12.50;68.60
23560;DHT22;11958;50.836;4.438;2023-05-29T05:58:08;12.50;69.00
23560;DHT22;11958;50.836;4.438;2023-05-29T06:00:34;12.70;68.90
23560;DHT22;11958;50.836;4.438;2023-05-29T06:03:00;12.70;67.00
23560;DHT22;11958;50.836;4.438;2023-05-29T06:05:29;13.10;66.00
23560;DHT22;11958;50.836;4.438;2023-05-29T06:07:55;12.90;65.80
23560;DHT22;11958;50.836;4.438;2023-05-29T06:10:21;12.90;66.00
23560;DHT22;11958;50.836;4.438;2023-05-29T06:12:47;13.00;65.70
23560;DHT22;11958;50.836;4.438;2023-05-29T06:15:15;12.90;65.90
23560;DHT22;11958;50.836;4.438;2023-05-29T06:17:52;13.10;65.70
23560;DHT22;11958;50.836;4.438;2023-05-29T06:20:26;13.50;64.40
23560;DHT22;11958;50.836;4.438;2023-05-29T06:22:52;13.20;64.60
23560;DHT22;11958;50.836;4.438;2023-05-29T06:25:19;13.20;64.90
23560;DHT22;11958;50.836;4.438;2023-05-29T06:27:54;13.20;64.90
23560;DHT22;11958;50.836;4.438;2023-05-29T06:30:33;13.20;65.20
23560;DHT22;11958;50.836;4.438;2023-05-29T06:33:10;13.30;65.40
23560;DHT22;11958;50.836;4.438;2023-05-29T06:35:36;13.50;63.90
23560;DHT22;11958;50.836;4.438;2023-05-29T06:38:02;13.50;65.10
23560;DHT22;11958;50.836;4.438;2023-05-29T06:40:27;13.50;64.50
23560;DHT22;11958;50.836;4.438;2023-05-29T06:42:53;13.60;64.50
23560;DHT22;11958;50.836;4.438;2023-05-29T06:45:19;13.80;63.30
23560;DHT22;11958;50.836;4.438;2023-05-29T06:47:45;13.70;63.30
23560;DHT22;11958;50.836;4.438;2023-05-29T06:50:10;13.90;63.60
23560;DHT22;11958;50.836;4.438;2023-05-29T06:52:36;13.80;63.70
23560;DHT22;11958;50.836;4.438;2023-05-29T06:55:02;13.80;64.00
23560;DHT22;11958;50.836;4.438;2023-05-29T06:57:28;13.90;63.50
23560;DHT22;11958;50.836;4.438;2023-05-29T06:59:54;14.20;62.00
23560;DHT22;11958;50.836;4.438;2023-05-29T07:02:19;13.80;62.60
23560;DHT22;11958;50.836;4.438;2023-05-29T07:04:45;14.10;62.70
23560;DHT22;11958;50.836;4.438;2023-05-29T07:07:11;14.20;62.30
23560;DHT22;11958;50.836;4.438;2023-05-29T07:09:36;14.00;62.40
23560;DHT22;11958;50.836;4.438;2023-05-29T07:12:05;14.20;62.40
23560;DHT22;11958;50.836;4.438;2023-05-29T07:14:31;14.50;61.80
23560;DHT22;11958;50.836;4.438;2023-05-29T07:16:56;14.30;61.60
23560;DHT22;11958;50.836;4.438;2023-05-29T07:19:22;14.60;60.80
23560;DHT22;11958;50.836;4.438;2023-05-29T07:21:48;14.50;61.10
23560;DHT22;11958;50.836;4.438;2023-05-29T07:24:14;14.40;61.10
23560;DHT22;11958;50.836;4.438;2023-05-29T07:26:40;14.70;59.90
23560;DHT22;11958;50.836;4.438;2023-05-29T07:29:06;14.70;60.30
23560;DHT22;11958;50.836;4.438;2023-05-29T07:31:31;14.80;59.20
23560;DHT22;11958;50.836;4.438;2023-05-29T07:33:57;14.70;59.00
23560;DHT22;11958;50.836;4.438;2023-05-29T07:36:33;14.70;59.60
23560;DHT22;11958;50.836;4.438;2023-05-29T07:38:59;14.80;59.70
23560;DHT22;11958;50.836;4.438;2023-05-29T07:41:25;14.80;59.50
23560;DHT22;11958;50.836;4.438;2023-05-29T07:43:54;14.90;58.90
23560;DHT22;11958;50.836;4.438;2023-05-29T07:46:21;14.90;58.00
23560;DHT22;11958;50.836;4.438;2023-05-29T07:48:46;14.90;58.20
23560;DHT22;11958;50.836;4.438;2023-05-29T07:51:23;15.20;57.40
23560;DHT22;11958;50.836;4.438;2023-05-29T07:53:49;15.40;57.00
23560;DHT22;11958;50.836;4.438;2023-05-29T07:56:15;15.50;55.70
23560;DHT22;11958;50.836;4.438;2023-05-29T07:58:42;15.50;54.80
23560;DHT22;11958;50.836;4.438;2023-05-29T08:01:07;15.30;56.30
23560;DHT22;11958;50.836;4.438;2023-05-29T08:18:17;15.00;58.00
23560;DHT22;11958;50.836;4.438;2023-05-29T08:20:58;15.40;56.40
23560;DHT22;11958;50.836;4.438;2023-05-29T08:23:36;15.70;54.80
23560;DHT22;11958;50.836;4.438;2023-05-29T08:26:02;15.90;53.70
23560;DHT22;11958;50.836;4.438;2023-05-29T08:28:28;16.00;52.90
23560;DHT22;11958;50.836;4.438;2023-05-29T08:31:00;15.80;54.10
23560;DHT22;11958;50.836;4.438;2023-05-29T08:33:29;15.80;54.30
23560;DHT22;11958;50.836;4.438;2023-05-29T08:36:02;15.80;54.50
23560;DHT22;11958;50.836;4.438;2023-05-29T08:38:27;15.80;53.40
23560;DHT22;11958;50.836;4.438;2023-05-29T08:40:54;15.80;54.60
23560;DHT22;11958;50.836;4.438;2023-05-29T08:43:32;16.00;53.40
23560;DHT22;11958;50.836;4.438;2023-05-29T08:46:02;16.00;53.40
23560;DHT22;11958;50.836;4.438;2023-05-29T08:48:30;16.10;53.40
23560;DHT22;11958;50.836;4.438;2023-05-29T08:50:57;16.50;51.90
23560;DHT22;11958;50.836;4.438;2023-05-29T08:53:26;16.40;51.60
23560;DHT22;11958;50.836;4.438;2023-05-29T08:55:52;16.40;51.00
23560;DHT22;11958;50.836;4.438;2023-05-29T08:58:21;16.50;52.10
23560;DHT22;11958;50.836;4.438;2023-05-29T09:00:48;16.50;52.00
23560;DHT22;11958;50.836;4.438;2023-05-29T09:03:15;16.30;52.50
23560;DHT22;11958;50.836;4.438;2023-05-29T09:05:41;16.40;53.20
23560;DHT22;11958;50.836;4.438;2023-05-29T09:08:11;16.40;52.50
23560;DHT22;11958;50.836;4.438;2023-05-29T09:10:43;16.50;53.20
23560;DHT22;11958;50.836;4.438;2023-05-29T09:13:10;16.90;51.70
23560;DHT22;11958;50.836;4.438;2023-05-29T09:15:37;17.30;50.60
23560;DHT22;11958;50.836;4.438;2023-05-29T09:18:05;17.40;51.20
23560;DHT22;11958;50.836;4.438;2023-05-29T09:20:37;17.20;51.10
23560;DHT22;11958;50.836;4.438;2023-05-29T09:23:13;17.20;50.80
23560;DHT22;11958;50.836;4.438;2023-05-29T09:25:42;17.00;52.10
23560;DHT22;11958;50.836;4.438;2023-05-29T09:28:09;17.30;52.10
23560;DHT22;11958;50.836;4.438;2023-05-29T09:30:43;17.30;50.30
23560;DHT22;11958;50.836;4.438;2023-05-29T09:33:12;17.40;50.40
23560;DHT22;11958;50.836;4.438;2023-05-29T09:35:50;17.40;49.90
23560;DHT22;11958;50.836;4.438;2023-05-29T09:38:18;17.50;49.70
23560;DHT22;11958;50.836;4.438;2023-05-29T09:40:47;17.50;50.20
23560;DHT22;11958;50.836;4.438;2023-05-29T09:43:17;17.70;50.30
23560;DHT22;11958;50.836;4.438;2023-05-29T09:45:58;17.70;49.70
23560;DHT22;11958;50.836;4.438;2023-05-29T09:48:35;17.70;50.20
23560;DHT22;11958;50.836;4.438;2023-05-29T09:51:28;17.80;50.60
23560;DHT22;11958;50.836;4.438;2023-05-29T09:54:16;17.70;49.90
23560;DHT22;11958;50.836;4.438;2023-05-29T09:56:43;17.80;50.10
23560;DHT22;11958;50.836;4.438;2023-05-29T09:59:28;17.60;49.60
23560;DHT22;11958;50.836;4.438;2023-05-29T10:02:13;17.40;49.30
23560;DHT22;11958;50.836;4.438;2023-05-29T10:04:41;17.90;48.20
23560;DHT22;11958;50.836;4.438;2023-05-29T10:07:15;17.90;48.40
23560;DHT22;11958;50.836;4.438;2023-05-29T10:09:47;17.90;48.10
23560;DHT22;11958;50.836;4.438;2023-05-29T10:12:22;18.10;48.70
23560;DHT22;11958;50.836;4.438;2023-05-29T10:14:49;18.20;47.20
23560;DHT22;11958;50.836;4.438;2023-05-29T10:17:18;18.20;46.10
23560;DHT22;11958;50.836;4.438;2023-05-29T10:19:55;18.40;44.80
23560;DHT22;11958;50.836;4.438;2023-05-29T10:22:25;18.10;47.50
23560;DHT22;11958;50.836;4.438;2023-05-29T10:24:55;18.40;46.00
23560;DHT22;11958;50.836;4.438;2023-05-29T10:27:30;18.50;44.80
23560;DHT22;11958;50.836;4.438;2023-05-29T10:30:02;18.90;43.60
23560;DHT22;11958;50.836;4.438;2023-05-29T10:32:37;18.70;44.40
23560;DHT22;11958;50.836;4.438;2023-05-29T10:35:23;18.70;44.40
23560;DHT22;11958;50.836;4.438;2023-05-29T10:38:13;18.90;44.70
23560;DHT22;11958;50.836;4.438;2023-05-29T10:40:47;18.90;43.80
23560;DHT22;11958;50.836;4.438;2023-05-29T10:43:38;18.60;43.70
23560;DHT22;11958;50.836;4.438;2023-05-29T10:46:05;18.70;44.40
23560;DHT22;11958;50.836;4.438;2023-05-29T10:48:38;18.70;44.80
23560;DHT22;11958;50.836;4.438;2023-05-29T10:51:05;18.70;45.60
23560;DHT22;11958;50.836;4.438;2023-05-29T10:53:33;18.70;43.70
23560;DHT22;11958;50.836;4.438;2023-05-29T10:56:28;19.00;43.30
23560;DHT22;11958;50.836;4.438;2023-05-29T10:58:58;18.90;44.20
23560;DHT22;11958;50.836;4.438;2023-05-29T11:01:24;19.50;42.00
23560;DHT22;11958;50.836;4.438;2023-05-29T11:06:48;19.50;41.40
23560;DHT22;11958;50.836;4.438;2023-05-29T11:09:47;19.70;41.70
23560;DHT22;11958;50.836;4.438;2023-05-29T11:15:46;19.60;41.60
23560;DHT22;11958;50.836;4.438;2023-05-29T11:18:12;19.70;41.30
23560;DHT22;11958;50.836;4.438;2023-05-29T11:20:58;19.70;41.70
23560;DHT22;11958;50.836;4.438;2023-05-29T11:23:38;19.60;41.50
23560;DHT22;11958;50.836;4.438;2023-05-29T11:26:07;19.70;41.20
23560;DHT22;11958;50.836;4.438;2023-05-29T11:28:33;20.00;41.40
23560;DHT22;11958;50.836;4.438;2023-05-29T11:30:59;20.60;40.10
23560;DHT22;11958;50.836;4.438;2023-05-29T11:33:40;21.00;37.70
23560;DHT22;11958;50.836;4.438;2023-05-29T11:36:09;20.90;37.70
23560;DHT22;11958;50.836;4.438;2023-05-29T11:38:36;20.40;39.80
23560;DHT22;11958;50.836;4.438;2023-05-29T11:41:02;20.30;39.40
23560;DHT22;11958;50.836;4.438;2023-05-29T11:43:31;20.30;40.40
23560;DHT22;11958;50.836;4.438;2023-05-29T11:45:57;20.40;39.70
23560;DHT22;11958;50.836;4.438;2023-05-29T11:48:23;20.80;40.20
23560;DHT22;11958;50.836;4.438;2023-05-29T11:50:49;21.10;38.10
23560;DHT22;11958;50.836;4.438;2023-05-29T11:53:15;21.20;36.90
23560;DHT22;11958;50.836;4.438;2023-05-29T11:55:41;20.90;37.50
23560;DHT22;11958;50.836;4.438;2023-05-29T11:58:07;20.80;38.70
23560;DHT22;11958;50.836;4.438;2023-05-29T12:00:37;21.20;37.20
23560;DHT22;11958;50.836;4.438;2023-05-29T12:03:04;21.00;37.00
23560;DHT22;11958;50.836;4.438;2023-05-29T12:05:47;20.50;39.40
23560;DHT22;11958;50.836;4.438;2023-05-29T12:08:14;20.70;39.30
23560;DHT22;11958;50.836;4.438;2023-05-29T12:10:47;21.10;37.90
23560;DHT22;11958;50.836;4.438;2023-05-29T12:13:19;21.70;35.80
23560;DHT22;11958;50.836;4.438;2023-05-29T12:15:45;22.30;34.70
23560;DHT22;11958;50.836;4.438;2023-05-29T12:18:13;22.50;34.50
23560;DHT22;11958;50.836;4.438;2023-05-29T12:20:46;23.70;31.90
23560;DHT22;11958;50.836;4.438;2023-05-29T12:23:22;24.30;30.10
23560;DHT22;11958;50.836;4.438;2023-05-29T12:25:56;24.00;30.10
23560;DHT22;11958;50.836;4.438;2023-05-29T12:28:33;23.90;29.90
23560;DHT22;11958;50.836;4.438;2023-05-29T12:31:07;24.30;29.70
23560;DHT22;11958;50.836;4.438;2023-05-29T12:33:33;24.90;28.80
23560;DHT22;11958;50.836;4.438;2023-05-29T12:36:31;25.30;29.00
23560;DHT22;11958;50.836;4.438;2023-05-29T12:38:58;24.50;29.00
23560;DHT22;11958;50.836;4.438;2023-05-29T12:41:33;24.90;28.60
23560;DHT22;11958;50.836;4.438;2023-05-29T12:44:02;25.70;27.70
23560;DHT22;11958;50.836;4.438;2023-05-29T12:46:57;26.30;26.50
23560;DHT22;11958;50.836;4.438;2023-05-29T12:51:55;26.60;25.70
23560;DHT22;11958;50.836;4.438;2023-05-29T12:54:32;25.70;27.30
23560;DHT22;11958;50.836;4.438;2023-05-29T12:59:34;24.60;28.50
23560;DHT22;11958;50.836;4.438;2023-05-29T13:02:17;24.40;28.50
23560;DHT22;11958;50.836;4.438;2023-05-29T13:04:46;24.00;29.80
23560;DHT22;11958;50.836;4.438;2023-05-29T13:07:12;24.40;29.00
23560;DHT22;11958;50.836;4.438;2023-05-29T13:09:37;24.90;28.10
23560;DHT22;11958;50.836;4.438;2023-05-29T13:12:03;24.70;28.50
23560;DHT22;11958;50.836;4.438;2023-05-29T13:14:38;24.70;29.00
23560;DHT22;11958;50.836;4.438;2023-05-29T13:23:23;25.40;26.50
23560;DHT22;11958;50.836;4.438;2023-05-29T13:25:58;25.00;27.90
23560;DHT22;11958;50.836;4.438;2023-05-29T13:28:23;25.30;27.10
23560;DHT22;11958;50.836;4.438;2023-05-29T13:30:55;25.60;27.60
23560;DHT22;11958;50.836;4.438;2023-05-29T13:33:21;25.50;26.80
23560;DHT22;11958;50.836;4.438;2023-05-29T13:35:53;25.10;27.40
23560;DHT22;11958;50.836;4.438;2023-05-29T13:38:19;25.40;27.40
23560;DHT22;11958;50.836;4.438;2023-05-29T13:40:57;25.90;26.40
23560;DHT22;11958;50.836;4.438;2023-05-29T13:43:27;25.80;26.30
23560;DHT22;11958;50.836;4.438;2023-05-29T13:57:56;26.40;26.10
23560;DHT22;11958;50.836;4.438;2023-05-29T14:00:35;26.60;25.10
23560;DHT22;11958;50.836;4.438;2023-05-29T14:03:01;26.90;25.40
23560;DHT22;11958;50.836;4.438;2023-05-29T14:05:32;26.10;25.50
23560;DHT22;11958;50.836;4.438;2023-05-29T14:07:58;25.70;26.40
23560;DHT22;11958;50.836;4.438;2023-05-29T14:10:33;25.40;27.30
23560;DHT22;11958;50.836;4.438;2023-05-29T14:13:05;25.90;26.70
23560;DHT22;11958;50.836;4.438;2023-05-29T14:15:45;26.20;26.30
23560;DHT22;11958;50.836;4.438;2023-05-29T14:18:14;26.10;26.00
23560;DHT22;11958;50.836;4.438;2023-05-29T14:20:40;26.40;24.90
23560;DHT22;11958;50.836;4.438;2023-05-29T14:23:05;26.40;25.00
23560;DHT22;11958;50.836;4.438;2023-05-29T14:25:34;25.50;26.40
23560;DHT22;11958;50.836;4.438;2023-05-29T14:28:00;25.20;28.30
23560;DHT22;11958;50.836;4.438;2023-05-29T14:30:26;25.00;27.50
23560;DHT22;11958;50.836;4.438;2023-05-29T14:32:51;24.50;27.20
23560;DHT22;11958;50.836;4.438;2023-05-29T14:35:27;24.40;27.90
23560;DHT22;11958;50.836;4.438;2023-05-29T14:38:02;25.40;26.80
23560;DHT22;11958;50.836;4.438;2023-05-29T14:40:37;25.60;26.70
23560;DHT22;11958;50.836;4.438;2023-05-29T14:43:03;25.80;26.60
23560;DHT22;11958;50.836;4.438;2023-05-29T14:45:31;25.00;27.50
23560;DHT22;11958;50.836;4.438;2023-05-29T14:48:03;24.40;27.70
23560;DHT22;11958;50.836;4.438;2023-05-29T14:50:37;24.60;27.80
23560;DHT22;11958;50.836;4.438;2023-05-29T14:53:06;24.00;28.90
23560;DHT22;11958;50.836;4.438;2023-05-29T14:55:34;23.80;29.20
23560;DHT22;11958;50.836;4.438;2023-05-29T14:58:04;23.80;28.80
23560;DHT22;11958;50.836;4.438;2023-05-29T15:28:22;22.30;32.50
23560;DHT22;11958;50.836;4.438;2023-05-29T15:30:54;21.80;33.00
23560;DHT22;11958;50.836;4.438;2023-05-29T15:33:19;21.60;33.60
23560;DHT22;11958;50.836;4.438;2023-05-29T15:35:45;21.40;33.60
23560;DHT22;11958;50.836;4.438;2023-05-29T15:38:11;21.30;34.10
23560;DHT22;11958;50.836;4.438;2023-05-29T15:40:38;21.20;34.60
23560;DHT22;11958;50.836;4.438;2023-05-29T15:43:05;21.00;34.20
23560;DHT22;11958;50.836;4.438;2023-05-29T15:45:30;21.10;34.40
23560;DHT22;11958;50.836;4.438;2023-05-29T15:47:59;21.10;33.80
23560;DHT22;11958;50.836;4.438;2023-05-29T15:50:37;21.20;33.90
23560;DHT22;11958;50.836;4.438;2023-05-29T15:53:15;21.10;33.90
23560;DHT22;11958;50.836;4.438;2023-05-29T15:55:41;21.60;33.70
23560;DHT22;11958;50.836;4.438;2023-05-29T15:58:16;21.50;33.50
23560;DHT22;11958;50.836;4.438;2023-05-29T16:00:57;21.30;32.90
23560;DHT22;11958;50.836;4.438;2023-05-29T16:03:25;21.30;32.90
23560;DHT22;11958;50.836;4.438;2023-05-29T16:06:03;21.40;32.70
23560;DHT22;11958;50.836;4.438;2023-05-29T16:08:38;21.20;32.80
23560;DHT22;11958;50.836;4.438;2023-05-29T16:11:32;21.30;32.30
23560;DHT22;11958;50.836;4.438;2023-05-29T16:14:01;21.30;32.50
23560;DHT22;11958;50.836;4.438;2023-05-29T16:19:11;21.10;33.30
23560;DHT22;11958;50.836;4.438;2023-05-29T16:21:43;21.10;32.50
23560;DHT22;11958;50.836;4.438;2023-05-29T16:24:11;21.10;33.50
23560;DHT22;11958;50.836;4.438;2023-05-29T16:26:52;21.10;32.70
23560;DHT22;11958;50.836;4.438;2023-05-29T16:29:24;21.10;32.40
23560;DHT22;11958;50.836;4.438;2023-05-29T16:31:53;20.80;33.80
23560;DHT22;11958;50.836;4.438;2023-05-29T16:34:18;20.60;34.10
23560;DHT22;11958;50.836;4.438;2023-05-29T16:36:47;20.60;33.00
23560;DHT22;11958;50.836;4.438;2023-05-29T16:39:19;20.90;32.90
23560;DHT22;11958;50.836;4.438;2023-05-29T16:41:53;20.90;30.60
23560;DHT22;11958;50.836;4.438;2023-05-29T16:44:36;20.70;32.20
23560;DHT22;11958;50.836;4.438;2023-05-29T16:47:05;20.50;30.60
23560;DHT22;11958;50.836;4.438;2023-05-29T16:49:31;20.40;30.60
23560;DHT22;11958;50.836;4.438;2023-05-29T16:51:59;20.30;30.50
23560;DHT22;11958;50.836;4.438;2023-05-29T16:54:25;20.70;29.60
23560;DHT22;11958;50.836;4.438;2023-05-29T16:56:54;20.60;30.70
23560;DHT22;11958;50.836;4.438;2023-05-29T17:00:01;20.30;31.40
23560;DHT22;11958;50.836;4.438;2023-05-29T17:02:27;20.60;31.70
23560;DHT22;11958;50.836;4.438;2023-05-29T17:04:53;20.30;32.40
23560;DHT22;11958;50.836;4.438;2023-05-29T17:07:24;20.00;33.40
23560;DHT22;11958;50.836;4.438;2023-05-29T17:09:53;19.90;33.80